CheckWX is a tool to help pilots better visualize weather data.  It is not intended as a substitute for an official pre-flight weather briefing.

03:57:44 UTC

KMKE TAF
General Mitchell International Airport
Milwaukee, Wisconsin, USA
KMKE 262326Z 2700/2806 30007KT P6SM OVC010 FM270600 30005KT P6SM OVC008 FM271300 34007KT P6SM OVC013 FM280100 33005KT P6SM OVC020

Jan-27@
00:00 UTC

Jan-27 @ 00:00 UTC

Jan-27@
06:00 UTC

Jan-27 @ 06:00 UTC

KMKE 262326Z 2700/2806 30007KT P6SM OVC010
Wind
  • 300° at 7 KTS
Cloud Levels
  • Overcast at 1,000' AGL

Jan-27@
06:00 UTC

Jan-27 @ 06:00 UTC

Jan-27@
13:00 UTC

Jan-27 @ 13:00 UTC

FM270600 30005KT P6SM OVC008

From

From Standard forecast or significant change

Wind
  • 300° at 5 KTS
Cloud Levels
  • Overcast at 800' AGL

Jan-27@
13:00 UTC

Jan-27 @ 13:00 UTC

Jan-28@
01:00 UTC

Jan-28 @ 01:00 UTC

FM271300 34007KT P6SM OVC013

From

From Standard forecast or significant change

Wind
  • 340° at 7 KTS
Cloud Levels
  • Overcast at 1,300' AGL

Jan-28@
01:00 UTC

Jan-28 @ 01:00 UTC

Jan-28@
06:00 UTC

Jan-28 @ 06:00 UTC

FM280100 33005KT P6SM OVC020

From

From Standard forecast or significant change

Wind
  • 330° at 5 KTS
Cloud Levels
  • Overcast at 2,000' AGL